Shinpuku Maru — JL6543 — position and weather

sailwx.info

Track history (hours):
 
Tides and Currents Weather Stations Pressure Air Temp Water Temp Dewpoint Dewpoint Depression Visibility Wind Speed Wind Dir Waves Ship Positions

Shinpuku Maru

Last reported at 2017-Nov-12 18:57 UTC. Time now 2017-Nov-22 01:50 UTC.
Position N 34°41' E 134°49'.
Warning: this ship's position is 9 days out of date.

Length 79 m; draft 5.3 m.

Type: Cargo ship. MMSI: 431500572.

Date/timePositionNaut miles runAvg speedWind from/ knotsBaromVisibWave heightAir tempDewpointWater temp
2017-Nov-12 18:57N 34°41' E 134°49'  
2017-Nov-09 08:44N 35°12' E 139°46'311.0
2017-Nov-09 08:30N 35°15' E 139°46'511.0
2017-Nov-09 08:00N 35°19' E 139°43'611.2
2017-Nov-09 07:30N 35°25' E 139°42'5 9.4
2017-Nov-09 07:00N 35°30' E 139°43'0 0.2
2017-Nov-09 06:27N 35°30' E 139°43'0 0.0
2017-Nov-09 05:57N 35°30' E 139°43'0 0.0
2017-Nov-09 05:27N 35°30' E 139°43'0 0.0
2017-Nov-09 05:00N 35°30' E 139°43'0 0.0
2017-Nov-09 04:27N 35°30' E 139°43'0 0.0
2017-Nov-09 04:00N 35°30' E 139°43'0 0.0
2017-Nov-09 03:30N 35°30' E 139°43'0 0.0
2017-Nov-09 03:00N 35°30' E 139°43'0 0.0
2017-Nov-09 02:30N 35°30' E 139°43'2 3.2
2017-Nov-09 01:58N 35°31' E 139°45'0 0.0
2017-Nov-09 01:28N 35°31' E 139°45'0 0.0
2017-Nov-09 00:58N 35°31' E 139°45'0 0.0
2017-Nov-09 00:28N 35°31' E 139°45'0 0.0
2017-Nov-08 23:58N 35°31' E 139°45'0 0.0
2017-Nov-08 23:28N 35°31' E 139°45'0 0.0
2017-Nov-08 22:58N 35°31' E 139°45'0 0.0
2017-Nov-08 22:28N 35°31' E 139°45'0 0.0
2017-Nov-08 21:58N 35°31' E 139°45'0 0.3
2017-Nov-08 21:30N 35°30' E 139°45'4 7.3
2017-Nov-08 21:00N 35°27' E 139°43'5 9.8
2017-Nov-08 20:30N 35°23' E 139°46'611.0
2017-Nov-08 20:00N 35°18' E 139°45'611.3
2017-Nov-08 19:26N 35°11' E 139°47'  
Track history (hours):
 
Tides and Currents Weather Stations Pressure Air Temp Water Temp Dewpoint Dewpoint Depression Visibility Wind Speed Wind Dir Waves Ship Positions

Shinpuku Maru

Last reported at 2017-Nov-12 18:57 UTC. Time now 2017-Nov-22 01:50 UTC.
Position N 34°41' E 134°49'.
Warning: this ship's position is 9 days out of date.

Length 79 m; draft 5.3 m.

Type: Cargo ship. MMSI: 431500572.

Date/timePositionNaut miles runAvg speedWind from/ knotsBaromVisibWave heightAir tempDewpointWater temp
2017-Nov-12 18:57N 34°41' E 134°49'  
2017-Nov-09 08:44N 35°12' E 139°46'311.0
2017-Nov-09 08:30N 35°15' E 139°46'511.0
2017-Nov-09 08:00N 35°19' E 139°43'611.2
2017-Nov-09 07:30N 35°25' E 139°42'5 9.4
2017-Nov-09 07:00N 35°30' E 139°43'0 0.2
2017-Nov-09 06:27N 35°30' E 139°43'0 0.0
2017-Nov-09 05:57N 35°30' E 139°43'0 0.0
2017-Nov-09 05:27N 35°30' E 139°43'0 0.0
2017-Nov-09 05:00N 35°30' E 139°43'0 0.0
2017-Nov-09 04:27N 35°30' E 139°43'0 0.0
2017-Nov-09 04:00N 35°30' E 139°43'0 0.0
2017-Nov-09 03:30N 35°30' E 139°43'0 0.0
2017-Nov-09 03:00N 35°30' E 139°43'0 0.0
2017-Nov-09 02:30N 35°30' E 139°43'2 3.2
2017-Nov-09 01:58N 35°31' E 139°45'0 0.0
2017-Nov-09 01:28N 35°31' E 139°45'0 0.0
2017-Nov-09 00:58N 35°31' E 139°45'0 0.0
2017-Nov-09 00:28N 35°31' E 139°45'0 0.0
2017-Nov-08 23:58N 35°31' E 139°45'0 0.0
2017-Nov-08 23:28N 35°31' E 139°45'0 0.0
2017-Nov-08 22:58N 35°31' E 139°45'0 0.0
2017-Nov-08 22:28N 35°31' E 139°45'0 0.0
2017-Nov-08 21:58N 35°31' E 139°45'0 0.3
2017-Nov-08 21:30N 35°30' E 139°45'4 7.3
2017-Nov-08 21:00N 35°27' E 139°43'5 9.8
2017-Nov-08 20:30N 35°23' E 139°46'611.0
2017-Nov-08 20:00N 35°18' E 139°45'611.3
2017-Nov-08 19:26N 35°11' E 139°47'  

Dump ship's entire track history